sensor_id;sensor_type;location;lat;lon;timestamp;P1;durP1;ratioP1;P2;durP2;ratioP2
20365;SDS011;10341;49.894;8.822;2022-09-17T00:01:13;2.40;;;1.10;;
20365;SDS011;10341;49.894;8.822;2022-09-17T00:06:37;1.90;;;0.80;;
20365;SDS011;10341;49.894;8.822;2022-09-17T00:11:56;1.58;;;0.80;;
20365;SDS011;10341;49.894;8.822;2022-09-17T00:17:16;0.82;;;0.60;;
20365;SDS011;10341;49.894;8.822;2022-09-17T00:22:36;3.28;;;0.90;;
20365;SDS011;10341;49.894;8.822;2022-09-17T00:27:55;5.93;;;0.90;;
20365;SDS011;10341;49.894;8.822;2022-09-17T00:33:15;2.33;;;0.77;;
20365;SDS011;10341;49.894;8.822;2022-09-17T00:38:35;6.70;;;1.00;;
20365;SDS011;10341;49.894;8.822;2022-09-17T00:43:56;3.47;;;0.88;;
20365;SDS011;10341;49.894;8.822;2022-09-17T00:49:25;5.47;;;1.10;;
20365;SDS011;10341;49.894;8.822;2022-09-17T01:00:11;2.13;;;1.00;;
20365;SDS011;10341;49.894;8.822;2022-09-17T01:05:39;1.63;;;0.70;;
20365;SDS011;10341;49.894;8.822;2022-09-17T01:11:26;2.33;;;0.77;;
20365;SDS011;10341;49.894;8.822;2022-09-17T01:28:13;3.53;;;1.10;;
20365;SDS011;10341;49.894;8.822;2022-09-17T01:34:04;2.35;;;1.05;;
20365;SDS011;10341;49.894;8.822;2022-09-17T02:01:52;1.55;;;0.90;;
20365;SDS011;10341;49.894;8.822;2022-09-17T02:07:16;2.65;;;0.80;;
20365;SDS011;10341;49.894;8.822;2022-09-17T02:12:42;2.13;;;1.00;;
20365;SDS011;10341;49.894;8.822;2022-09-17T02:18:18;2.55;;;0.93;;
20365;SDS011;10341;49.894;8.822;2022-09-17T02:24:01;3.50;;;1.30;;
20365;SDS011;10341;49.894;8.822;2022-09-17T02:29:29;4.15;;;1.00;;
20365;SDS011;10341;49.894;8.822;2022-09-17T02:34:56;2.25;;;0.77;;
20365;SDS011;10341;49.894;8.822;2022-09-17T02:40:15;1.95;;;1.02;;
20365;SDS011;10341;49.894;8.822;2022-09-17T03:02:51;4.30;;;1.48;;
20365;SDS011;10341;49.894;8.822;2022-09-17T03:08:26;2.88;;;1.10;;
20365;SDS011;10341;49.894;8.822;2022-09-17T03:13:47;6.47;;;1.20;;
20365;SDS011;10341;49.894;8.822;2022-09-17T03:19:07;5.15;;;1.15;;
20365;SDS011;10341;49.894;8.822;2022-09-17T03:24:26;2.03;;;1.30;;
20365;SDS011;10341;49.894;8.822;2022-09-17T03:29:45;3.60;;;1.40;;
20365;SDS011;10341;49.894;8.822;2022-09-17T03:35:04;5.43;;;1.35;;
20365;SDS011;10341;49.894;8.822;2022-09-17T03:40:24;3.75;;;1.33;;
20365;SDS011;10341;49.894;8.822;2022-09-17T03:45:43;3.08;;;1.60;;
20365;SDS011;10341;49.894;8.822;2022-09-17T03:51:03;12.35;;;2.05;;
20365;SDS011;10341;49.894;8.822;2022-09-17T03:56:22;4.97;;;1.50;;
20365;SDS011;10341;49.894;8.822;2022-09-17T04:01:42;3.05;;;1.65;;
20365;SDS011;10341;49.894;8.822;2022-09-17T04:07:01;4.63;;;1.60;;
20365;SDS011;10341;49.894;8.822;2022-09-17T04:12:20;3.53;;;1.52;;
20365;SDS011;10341;49.894;8.822;2022-09-17T04:17:39;5.07;;;2.33;;
20365;SDS011;10341;49.894;8.822;2022-09-17T04:22:58;9.82;;;2.20;;
20365;SDS011;10341;49.894;8.822;2022-09-17T04:28:17;10.55;;;2.42;;
20365;SDS011;10341;49.894;8.822;2022-09-17T04:33:36;5.25;;;2.20;;
20365;SDS011;10341;49.894;8.822;2022-09-17T04:38:56;5.68;;;2.05;;
20365;SDS011;10341;49.894;8.822;2022-09-17T04:44:15;9.03;;;2.10;;
20365;SDS011;10341;49.894;8.822;2022-09-17T04:49:34;5.57;;;2.10;;
20365;SDS011;10341;49.894;8.822;2022-09-17T04:54:53;4.25;;;2.45;;
20365;SDS011;10341;49.894;8.822;2022-09-17T05:00:12;2.78;;;2.03;;
20365;SDS011;10341;49.894;8.822;2022-09-17T05:05:32;5.55;;;1.98;;
20365;SDS011;10341;49.894;8.822;2022-09-17T05:10:52;6.13;;;1.92;;
20365;SDS011;10341;49.894;8.822;2022-09-17T05:16:11;3.60;;;2.53;;
20365;SDS011;10341;49.894;8.822;2022-09-17T05:21:30;6.75;;;2.60;;
20365;SDS011;10341;49.894;8.822;2022-09-17T05:26:49;6.57;;;2.55;;
20365;SDS011;10341;49.894;8.822;2022-09-17T05:32:08;6.95;;;2.50;;
20365;SDS011;10341;49.894;8.822;2022-09-17T05:37:28;3.25;;;2.35;;
20365;SDS011;10341;49.894;8.822;2022-09-17T05:42:46;6.55;;;2.20;;
20365;SDS011;10341;49.894;8.822;2022-09-17T05:48:06;3.00;;;1.98;;
20365;SDS011;10341;49.894;8.822;2022-09-17T05:53:27;5.65;;;2.40;;
20365;SDS011;10341;49.894;8.822;2022-09-17T05:58:46;3.83;;;2.33;;
20365;SDS011;10341;49.894;8.822;2022-09-17T06:04:05;6.63;;;2.30;;
20365;SDS011;10341;49.894;8.822;2022-09-17T06:09:24;8.13;;;2.92;;
20365;SDS011;10341;49.894;8.822;2022-09-17T06:14:44;4.55;;;1.90;;
20365;SDS011;10341;49.894;8.822;2022-09-17T06:20:03;4.90;;;2.15;;
20365;SDS011;10341;49.894;8.822;2022-09-17T06:25:23;2.83;;;2.33;;
20365;SDS011;10341;49.894;8.822;2022-09-17T06:30:44;3.70;;;2.10;;
20365;SDS011;10341;49.894;8.822;2022-09-17T06:36:04;2.80;;;1.80;;
20365;SDS011;10341;49.894;8.822;2022-09-17T06:41:25;6.38;;;2.70;;
20365;SDS011;10341;49.894;8.822;2022-09-17T06:46:47;4.13;;;2.00;;
20365;SDS011;10341;49.894;8.822;2022-09-17T06:52:07;7.75;;;2.60;;
20365;SDS011;10341;49.894;8.822;2022-09-17T06:57:26;7.70;;;2.20;;
20365;SDS011;10341;49.894;8.822;2022-09-17T07:02:55;6.05;;;2.10;;
20365;SDS011;10341;49.894;8.822;2022-09-17T07:08:15;6.30;;;2.00;;
20365;SDS011;10341;49.894;8.822;2022-09-17T07:13:35;5.65;;;1.58;;
20365;SDS011;10341;49.894;8.822;2022-09-17T07:18:55;5.57;;;2.60;;
20365;SDS011;10341;49.894;8.822;2022-09-17T07:24:14;7.97;;;2.03;;
20365;SDS011;10341;49.894;8.822;2022-09-17T07:29:33;6.55;;;2.38;;
20365;SDS011;10341;49.894;8.822;2022-09-17T07:34:52;5.32;;;1.85;;
20365;SDS011;10341;49.894;8.822;2022-09-17T07:40:11;5.35;;;1.98;;
20365;SDS011;10341;49.894;8.822;2022-09-17T07:45:30;6.50;;;2.00;;
20365;SDS011;10341;49.894;8.822;2022-09-17T07:50:50;2.50;;;1.63;;
20365;SDS011;10341;49.894;8.822;2022-09-17T07:56:09;3.07;;;2.00;;
20365;SDS011;10341;49.894;8.822;2022-09-17T08:01:30;4.10;;;1.87;;
20365;SDS011;10341;49.894;8.822;2022-09-17T08:06:51;4.63;;;1.98;;
20365;SDS011;10341;49.894;8.822;2022-09-17T08:12:10;4.60;;;1.83;;
20365;SDS011;10341;49.894;8.822;2022-09-17T08:17:29;6.75;;;1.73;;
20365;SDS011;10341;49.894;8.822;2022-09-17T08:22:49;6.70;;;1.50;;
20365;SDS011;10341;49.894;8.822;2022-09-17T08:28:08;3.25;;;1.45;;
20365;SDS011;10341;49.894;8.822;2022-09-17T08:33:29;8.20;;;1.63;;
20365;SDS011;10341;49.894;8.822;2022-09-17T08:38:51;4.40;;;1.58;;
20365;SDS011;10341;49.894;8.822;2022-09-17T08:44:29;6.40;;;1.70;;
20365;SDS011;10341;49.894;8.822;2022-09-17T08:49:57;5.32;;;1.55;;
20365;SDS011;10341;49.894;8.822;2022-09-17T09:01:11;4.28;;;1.60;;
20365;SDS011;10341;49.894;8.822;2022-09-17T09:07:11;5.18;;;1.42;;
20365;SDS011;10341;49.894;8.822;2022-09-17T09:12:36;5.28;;;1.42;;
20365;SDS011;10341;49.894;8.822;2022-09-17T09:23:20;4.28;;;1.38;;
20365;SDS011;10341;49.894;8.822;2022-09-17T09:29:03;2.80;;;0.98;;
20365;SDS011;10341;49.894;8.822;2022-09-17T09:34:28;3.08;;;1.20;;
20365;SDS011;10341;49.894;8.822;2022-09-17T09:39:52;4.60;;;1.27;;
20365;SDS011;10341;49.894;8.822;2022-09-17T09:45:13;3.05;;;1.00;;
20365;SDS011;10341;49.894;8.822;2022-09-17T09:50:42;1.42;;;0.85;;
20365;SDS011;10341;49.894;8.822;2022-09-17T10:02:16;3.80;;;1.15;;
20365;SDS011;10341;49.894;8.822;2022-09-17T10:07:42;2.87;;;1.27;;
20365;SDS011;10341;49.894;8.822;2022-09-17T10:13:04;3.38;;;1.20;;
20365;SDS011;10341;49.894;8.822;2022-09-17T10:18:25;3.05;;;1.40;;
20365;SDS011;10341;49.894;8.822;2022-09-17T10:23:44;2.23;;;1.40;;
20365;SDS011;10341;49.894;8.822;2022-09-17T10:29:04;1.98;;;0.90;;
20365;SDS011;10341;49.894;8.822;2022-09-17T10:34:31;3.03;;;0.98;;
20365;SDS011;10341;49.894;8.822;2022-09-17T10:39:51;1.63;;;0.88;;
20365;SDS011;10341;49.894;8.822;2022-09-17T10:50:46;2.35;;;0.98;;
20365;SDS011;10341;49.894;8.822;2022-09-17T10:56:16;2.55;;;0.82;;
20365;SDS011;10341;49.894;8.822;2022-09-17T11:18:42;6.85;;;1.10;;
20365;SDS011;10341;49.894;8.822;2022-09-17T11:24:10;4.47;;;0.80;;
20365;SDS011;10341;49.894;8.822;2022-09-17T11:35:38;3.20;;;1.05;;
20365;SDS011;10341;49.894;8.822;2022-09-17T11:41:39;6.32;;;1.30;;
20365;SDS011;10341;49.894;8.822;2022-09-17T11:46:56;4.60;;;1.00;;
20365;SDS011;10341;49.894;8.822;2022-09-17T11:52:22;3.17;;;0.70;;
20365;SDS011;10341;49.894;8.822;2022-09-17T11:57:46;2.97;;;0.93;;
20365;SDS011;10341;49.894;8.822;2022-09-17T12:14:42;2.15;;;0.80;;
20365;SDS011;10341;49.894;8.822;2022-09-17T12:20:07;3.35;;;0.77;;
20365;SDS011;10341;49.894;8.822;2022-09-17T12:25:48;3.17;;;0.60;;
20365;SDS011;10341;49.894;8.822;2022-09-17T12:31:38;2.10;;;0.85;;
20365;SDS011;10341;49.894;8.822;2022-09-17T12:37:00;2.63;;;0.80;;
20365;SDS011;10341;49.894;8.822;2022-09-17T12:42:28;3.40;;;0.90;;
20365;SDS011;10341;49.894;8.822;2022-09-17T12:53:58;3.65;;;0.88;;
20365;SDS011;10341;49.894;8.822;2022-09-17T12:59:20;3.58;;;0.65;;
20365;SDS011;10341;49.894;8.822;2022-09-17T13:11:09;1.80;;;0.50;;
20365;SDS011;10341;49.894;8.822;2022-09-17T13:22:29;1.10;;;0.50;;
20365;SDS011;10341;49.894;8.822;2022-09-17T13:28:02;2.78;;;0.70;;
20365;SDS011;10341;49.894;8.822;2022-09-17T13:45:05;1.88;;;0.50;;
20365;SDS011;10341;49.894;8.822;2022-09-17T13:50:31;0.88;;;0.47;;
20365;SDS011;10341;49.894;8.822;2022-09-17T13:55:55;1.10;;;0.50;;
20365;SDS011;10341;49.894;8.822;2022-09-17T14:01:16;2.03;;;0.52;;
20365;SDS011;10341;49.894;8.822;2022-09-17T14:17:58;2.90;;;0.90;;
20365;SDS011;10341;49.894;8.822;2022-09-17T14:23:18;1.85;;;0.50;;
20365;SDS011;10341;49.894;8.822;2022-09-17T14:28:38;2.43;;;0.83;;
20365;SDS011;10341;49.894;8.822;2022-09-17T14:34:23;2.72;;;0.60;;
20365;SDS011;10341;49.894;8.822;2022-09-17T14:39:43;1.38;;;0.50;;
20365;SDS011;10341;49.894;8.822;2022-09-17T14:45:21;0.55;;;0.35;;
20365;SDS011;10341;49.894;8.822;2022-09-17T14:50:41;1.02;;;0.43;;
20365;SDS011;10341;49.894;8.822;2022-09-17T14:56:00;1.83;;;0.50;;
20365;SDS011;10341;49.894;8.822;2022-09-17T15:06:42;0.98;;;0.30;;
20365;SDS011;10341;49.894;8.822;2022-09-17T15:12:02;1.73;;;0.52;;
20365;SDS011;10341;49.894;8.822;2022-09-17T15:17:23;1.75;;;0.52;;
20365;SDS011;10341;49.894;8.822;2022-09-17T15:22:44;2.78;;;0.40;;
20365;SDS011;10341;49.894;8.822;2022-09-17T15:28:15;2.60;;;0.60;;
20365;SDS011;10341;49.894;8.822;2022-09-17T15:33:41;1.98;;;0.50;;
20365;SDS011;10341;49.894;8.822;2022-09-17T15:39:04;1.02;;;0.50;;
20365;SDS011;10341;49.894;8.822;2022-09-17T15:50:57;1.42;;;1.02;;
20365;SDS011;10341;49.894;8.822;2022-09-17T15:56:18;3.75;;;0.93;;
20365;SDS011;10341;49.894;8.822;2022-09-17T16:12:30;2.88;;;0.90;;
20365;SDS011;10341;49.894;8.822;2022-09-17T16:17:49;1.92;;;0.60;;
20365;SDS011;10341;49.894;8.822;2022-09-17T16:23:08;1.75;;;0.30;;
20365;SDS011;10341;49.894;8.822;2022-09-17T16:28:27;0.30;;;0.30;;
20365;SDS011;10341;49.894;8.822;2022-09-17T16:33:47;2.20;;;0.40;;
20365;SDS011;10341;49.894;8.822;2022-09-17T16:39:07;0.88;;;0.40;;
20365;SDS011;10341;49.894;8.822;2022-09-17T16:44:26;0.47;;;0.30;;
20365;SDS011;10341;49.894;8.822;2022-09-17T16:49:46;1.63;;;0.20;;
20365;SDS011;10341;49.894;8.822;2022-09-17T16:55:05;0.30;;;0.25;;
20365;SDS011;10341;49.894;8.822;2022-09-17T17:00:25;1.73;;;0.25;;
20365;SDS011;10341;49.894;8.822;2022-09-17T17:05:45;0.53;;;0.20;;
20365;SDS011;10341;49.894;8.822;2022-09-17T17:11:04;0.50;;;0.35;;
20365;SDS011;10341;49.894;8.822;2022-09-17T17:21:43;1.60;;;1.10;;
20365;SDS011;10341;49.894;8.822;2022-09-17T17:27:02;0.57;;;0.20;;
20365;SDS011;10341;49.894;8.822;2022-09-17T17:32:21;0.83;;;0.20;;
20365;SDS011;10341;49.894;8.822;2022-09-17T17:37:40;2.00;;;0.30;;
20365;SDS011;10341;49.894;8.822;2022-09-17T17:43:00;0.60;;;0.20;;
20365;SDS011;10341;49.894;8.822;2022-09-17T17:48:19;2.30;;;0.52;;
20365;SDS011;10341;49.894;8.822;2022-09-17T17:53:40;1.17;;;0.40;;
20365;SDS011;10341;49.894;8.822;2022-09-17T17:59:00;1.48;;;0.73;;
20365;SDS011;10341;49.894;8.822;2022-09-17T18:04:19;0.60;;;0.40;;
20365;SDS011;10341;49.894;8.822;2022-09-17T18:09:38;2.05;;;0.90;;
20365;SDS011;10341;49.894;8.822;2022-09-17T18:14:58;0.40;;;0.20;;
20365;SDS011;10341;49.894;8.822;2022-09-17T18:20:17;0.50;;;0.47;;
20365;SDS011;10341;49.894;8.822;2022-09-17T18:25:37;0.95;;;0.30;;
20365;SDS011;10341;49.894;8.822;2022-09-17T18:30:56;2.55;;;0.30;;
20365;SDS011;10341;49.894;8.822;2022-09-17T18:36:21;1.52;;;0.50;;
20365;SDS011;10341;49.894;8.822;2022-09-17T18:41:40;2.23;;;0.40;;
20365;SDS011;10341;49.894;8.822;2022-09-17T18:47:00;0.82;;;0.20;;
20365;SDS011;10341;49.894;8.822;2022-09-17T18:52:19;1.17;;;0.30;;
20365;SDS011;10341;49.894;8.822;2022-09-17T18:57:38;0.90;;;0.40;;
20365;SDS011;10341;49.894;8.822;2022-09-17T19:02:57;2.28;;;0.40;;
20365;SDS011;10341;49.894;8.822;2022-09-17T19:08:20;0.30;;;0.30;;
20365;SDS011;10341;49.894;8.822;2022-09-17T19:13:40;1.52;;;0.60;;
20365;SDS011;10341;49.894;8.822;2022-09-17T19:19:01;1.10;;;0.30;;
20365;SDS011;10341;49.894;8.822;2022-09-17T19:24:20;4.47;;;0.50;;
20365;SDS011;10341;49.894;8.822;2022-09-17T19:29:39;1.60;;;0.50;;
20365;SDS011;10341;49.894;8.822;2022-09-17T19:34:58;3.38;;;0.60;;
20365;SDS011;10341;49.894;8.822;2022-09-17T19:40:18;1.95;;;0.45;;
20365;SDS011;10341;49.894;8.822;2022-09-17T19:45:38;1.55;;;0.70;;
20365;SDS011;10341;49.894;8.822;2022-09-17T19:50:57;2.65;;;0.70;;
20365;SDS011;10341;49.894;8.822;2022-09-17T19:56:20;2.25;;;0.60;;
20365;SDS011;10341;49.894;8.822;2022-09-17T20:01:41;4.68;;;0.85;;
20365;SDS011;10341;49.894;8.822;2022-09-17T20:07:00;1.20;;;0.68;;
20365;SDS011;10341;49.894;8.822;2022-09-17T20:12:22;2.97;;;0.68;;
20365;SDS011;10341;49.894;8.822;2022-09-17T20:17:41;2.65;;;0.63;;
20365;SDS011;10341;49.894;8.822;2022-09-17T20:23:01;4.93;;;1.38;;
20365;SDS011;10341;49.894;8.822;2022-09-17T20:28:20;1.92;;;0.65;;
20365;SDS011;10341;49.894;8.822;2022-09-17T20:33:39;2.42;;;0.88;;
20365;SDS011;10341;49.894;8.822;2022-09-17T20:38:59;2.83;;;0.73;;
20365;SDS011;10341;49.894;8.822;2022-09-17T20:44:18;2.42;;;0.70;;
20365;SDS011;10341;49.894;8.822;2022-09-17T20:49:38;1.40;;;0.63;;
20365;SDS011;10341;49.894;8.822;2022-09-17T20:54:57;1.05;;;0.60;;
20365;SDS011;10341;49.894;8.822;2022-09-17T21:00:16;1.50;;;0.70;;
20365;SDS011;10341;49.894;8.822;2022-09-17T21:05:38;1.40;;;0.52;;
20365;SDS011;10341;49.894;8.822;2022-09-17T21:11:02;2.55;;;0.88;;
20365;SDS011;10341;49.894;8.822;2022-09-17T21:16:23;2.75;;;0.60;;
20365;SDS011;10341;49.894;8.822;2022-09-17T21:21:43;2.25;;;0.60;;
20365;SDS011;10341;49.894;8.822;2022-09-17T21:27:02;1.98;;;0.70;;
20365;SDS011;10341;49.894;8.822;2022-09-17T21:32:21;3.17;;;0.98;;
20365;SDS011;10341;49.894;8.822;2022-09-17T21:37:41;1.80;;;0.90;;
20365;SDS011;10341;49.894;8.822;2022-09-17T21:43:00;2.25;;;0.70;;
20365;SDS011;10341;49.894;8.822;2022-09-17T21:48:19;1.45;;;0.80;;
20365;SDS011;10341;49.894;8.822;2022-09-17T21:53:38;2.38;;;0.77;;
20365;SDS011;10341;49.894;8.822;2022-09-17T21:59:02;2.38;;;0.50;;
20365;SDS011;10341;49.894;8.822;2022-09-17T22:04:22;3.30;;;1.10;;
20365;SDS011;10341;49.894;8.822;2022-09-17T22:09:43;1.98;;;1.17;;
20365;SDS011;10341;49.894;8.822;2022-09-17T22:15:02;3.75;;;0.98;;
20365;SDS011;10341;49.894;8.822;2022-09-17T22:20:22;8.13;;;1.17;;
20365;SDS011;10341;49.894;8.822;2022-09-17T22:25:43;2.55;;;0.90;;
20365;SDS011;10341;49.894;8.822;2022-09-17T22:31:03;3.13;;;0.85;;
20365;SDS011;10341;49.894;8.822;2022-09-17T22:36:24;2.20;;;1.00;;
20365;SDS011;10341;49.894;8.822;2022-09-17T22:41:44;5.00;;;0.85;;
20365;SDS011;10341;49.894;8.822;2022-09-17T22:47:04;2.60;;;1.08;;
20365;SDS011;10341;49.894;8.822;2022-09-17T22:52:23;2.53;;;1.00;;
20365;SDS011;10341;49.894;8.822;2022-09-17T22:57:42;1.83;;;0.98;;
20365;SDS011;10341;49.894;8.822;2022-09-17T23:03:01;5.28;;;1.10;;
20365;SDS011;10341;49.894;8.822;2022-09-17T23:08:20;3.88;;;1.10;;
20365;SDS011;10341;49.894;8.822;2022-09-17T23:13:40;4.10;;;1.20;;
20365;SDS011;10341;49.894;8.822;2022-09-17T23:18:59;6.88;;;1.10;;
20365;SDS011;10341;49.894;8.822;2022-09-17T23:24:21;3.47;;;1.23;;
20365;SDS011;10341;49.894;8.822;2022-09-17T23:29:40;2.72;;;1.10;;
20365;SDS011;10341;49.894;8.822;2022-09-17T23:34:59;2.67;;;1.10;;
20365;SDS011;10341;49.894;8.822;2022-09-17T23:40:19;6.33;;;1.30;;
20365;SDS011;10341;49.894;8.822;2022-09-17T23:45:40;3.95;;;1.20;;
20365;SDS011;10341;49.894;8.822;2022-09-17T23:50:59;4.27;;;1.43;;
20365;SDS011;10341;49.894;8.822;2022-09-17T23:56:20;3.75;;;1.23;;
